createdAt,value
2023-02-27T00:01:47.880Z,102989.56
2023-02-27T00:04:14.624Z,102989.56
2023-02-27T00:06:41.219Z,102990.41
2023-02-27T00:09:08.340Z,102991.81
2023-02-27T00:11:34.847Z,102997.63
2023-02-27T00:14:01.289Z,103001.78
2023-02-27T00:16:27.810Z,102994.25
2023-02-27T00:18:54.369Z,102994.81
2023-02-27T00:21:20.982Z,102995.53
2023-02-27T00:23:47.413Z,102990.03
2023-02-27T00:26:13.959Z,102994.38
2023-02-27T00:28:40.469Z,102988.31
2023-02-27T00:31:06.982Z,102988.09
2023-02-27T00:33:33.473Z,102998.66
2023-02-27T00:36:01.960Z,103002.16
2023-02-27T00:38:29.282Z,102986.44
2023-02-27T00:40:55.830Z,102992.84
2023-02-27T00:43:22.298Z,102994.38
2023-02-27T00:45:48.856Z,102985.16
2023-02-27T00:48:16.299Z,102982.94
2023-02-27T00:50:43.543Z,102983.06
2023-02-27T00:53:10.310Z,102980.28
2023-02-27T00:55:36.823Z,102970.28
2023-02-27T00:58:03.569Z,102985.16
2023-02-27T01:00:30.116Z,102971.78
2023-02-27T01:02:56.692Z,102976.78
2023-02-27T01:05:23.281Z,102977.84
2023-02-27T01:07:50.167Z,102972.16
2023-02-27T01:10:16.843Z,102978.19
2023-02-27T01:12:43.693Z,102973.88
2023-02-27T01:15:11.942Z,102973.63
2023-02-27T01:17:38.639Z,102978.75
2023-02-27T01:20:07.092Z,102980.63
2023-02-27T01:22:34.208Z,102985.59
2023-02-27T01:25:00.964Z,102978.03
2023-02-27T01:27:27.889Z,102979.81
2023-02-27T01:29:54.409Z,102982.25
2023-02-27T01:32:20.974Z,102982.09
2023-02-27T01:34:47.655Z,102984.44
2023-02-27T01:37:14.168Z,102979.56
2023-02-27T01:39:40.655Z,102978.94
2023-02-27T01:42:25.692Z,102975.34
2023-02-27T01:45:24.086Z,102976.97
2023-02-27T01:47:56.393Z,102975.44
2023-02-27T01:50:23.935Z,102979.75
2023-02-27T01:52:56.196Z,102976.03
2023-02-27T01:55:24.680Z,102972.63
2023-02-27T01:57:52.981Z,102979.97
2023-02-27T02:00:19.931Z,102974.97
2023-02-27T02:03:17.123Z,102978.47
2023-02-27T02:05:45.230Z,102968.59
2023-02-27T02:08:15.057Z,102971.72
2023-02-27T02:10:41.788Z,102966.16
2023-02-27T02:13:09.524Z,102963.03
2023-02-27T02:15:41.884Z,102970.09
2023-02-27T02:18:36.379Z,102966.53
2023-02-27T02:21:40.127Z,102963.38
2023-02-27T02:24:45.147Z,102969.63
2023-02-27T02:27:28.680Z,102973.81
2023-02-27T02:30:15.415Z,102972.31
2023-02-27T02:33:06.469Z,102964.19
2023-02-27T02:36:09.236Z,102976.97
2023-02-27T02:38:49.676Z,102975.09
2023-02-27T02:41:51.450Z,102973.34
2023-02-27T02:44:36.362Z,102976.97
2023-02-27T02:47:11.352Z,102974.97
2023-02-27T02:49:43.838Z,102982.31
2023-02-27T02:52:23.056Z,102979.28
2023-02-27T02:54:55.253Z,102980.94
2023-02-27T02:57:29.812Z,102976.50
2023-02-27T03:00:09.374Z,102977.78
2023-02-27T03:02:43.554Z,102969.19
2023-02-27T03:05:17.187Z,102976.75
2023-02-27T03:08:02.963Z,102972.91
2023-02-27T03:10:38.062Z,102982.66
2023-02-27T03:13:18.060Z,102976.41
2023-02-27T03:16:04.903Z,102982.41
2023-02-27T03:19:18.372Z,102977.44
2023-02-27T03:21:57.354Z,102972.44
2023-02-27T03:24:30.173Z,102973.84
2023-02-27T03:27:02.754Z,102971.97
2023-02-27T03:29:49.465Z,102975.47
2023-02-27T03:32:25.171Z,102970.25
2023-02-27T03:34:51.732Z,102979.97
2023-02-27T03:37:39.948Z,102976.25
2023-02-27T03:40:19.887Z,102970.53
2023-02-27T03:42:57.837Z,102971.88
2023-02-27T03:45:43.573Z,102969.53
2023-02-27T03:48:10.136Z,102970.00
2023-02-27T03:50:37.417Z,102961.41
2023-02-27T03:53:11.194Z,102964.75
2023-02-27T03:55:43.844Z,102965.88
2023-02-27T03:58:10.498Z,102966.09
2023-02-27T04:00:37.420Z,102974.91
2023-02-27T04:03:05.424Z,102974.91
2023-02-27T04:05:33.039Z,102980.94
2023-02-27T04:08:11.385Z,102972.56
2023-02-27T04:10:53.060Z,102987.25
2023-02-27T04:13:36.794Z,102986.44
2023-02-27T04:16:27.726Z,102988.06
2023-02-27T04:19:37.054Z,102985.63
2023-02-27T04:22:09.382Z,102993.88
2023-02-27T04:24:58.979Z,102998.97
2023-02-27T04:27:40.497Z,102992.81
2023-02-27T04:30:36.404Z,102996.31
2023-02-27T04:33:08.746Z,103003.44
2023-02-27T04:35:59.777Z,103002.25
2023-02-27T04:38:32.274Z,103001.69
2023-02-27T04:41:08.844Z,103006.06
2023-02-27T04:43:38.889Z,103013.63
2023-02-27T04:46:08.733Z,103017.50
2023-02-27T04:48:54.023Z,103023.28
2023-02-27T04:51:26.582Z,103019.59
2023-02-27T04:53:58.786Z,103017.00
2023-02-27T04:56:31.222Z,103019.66
2023-02-27T04:59:03.872Z,103026.28
2023-02-27T05:01:55.430Z,103018.34
2023-02-27T05:04:24.417Z,103023.09
2023-02-27T05:06:54.222Z,103028.03
2023-02-27T05:09:31.284Z,103021.97
2023-02-27T05:12:32.068Z,103025.25
2023-02-27T05:15:06.297Z,103027.31
2023-02-27T05:17:48.535Z,103026.66
2023-02-27T05:20:17.277Z,103033.91
2023-02-27T05:22:59.615Z,103023.16
2023-02-27T05:25:53.944Z,103031.69
2023-02-27T05:28:45.069Z,103028.34
2023-02-27T05:31:33.091Z,103039.84
2023-02-27T05:34:17.734Z,103034.97
2023-02-27T05:36:51.957Z,103048.44
2023-02-27T05:39:23.019Z,103045.19
2023-02-27T05:42:19.648Z,103040.34
2023-02-27T05:44:53.969Z,103047.78
2023-02-27T05:47:24.101Z,103036.50
2023-02-27T05:50:00.064Z,103044.38
2023-02-27T05:52:29.403Z,103048.44
2023-02-27T05:54:56.042Z,103050.16
2023-02-27T05:57:45.783Z,103051.78
2023-02-27T06:00:38.816Z,103052.59
2023-02-27T06:03:05.553Z,103050.16
2023-02-27T06:05:32.573Z,103059.84
2023-02-27T06:07:59.042Z,103060.88
2023-02-27T06:10:26.083Z,103063.63
2023-02-27T06:12:52.674Z,103071.81
2023-02-27T06:15:19.707Z,103070.81
2023-02-27T06:17:46.263Z,103066.00
2023-02-27T06:20:13.031Z,103076.72
2023-02-27T06:22:39.630Z,103082.06
2023-02-27T06:25:06.627Z,103083.91
2023-02-27T06:27:33.110Z,103085.41
2023-02-27T06:29:59.721Z,103093.41
2023-02-27T06:32:26.244Z,103093.84
2023-02-27T06:34:53.204Z,103103.03
2023-02-27T06:37:21.562Z,103105.72
2023-02-27T06:39:48.120Z,103104.09
2023-02-27T06:42:14.592Z,103102.88
2023-02-27T06:44:41.053Z,103115.13
2023-02-27T06:47:07.521Z,103120.25
2023-02-27T06:49:34.015Z,103111.94
2023-02-27T06:52:00.509Z,103110.94
2023-02-27T06:54:27.042Z,103120.59
2023-02-27T06:56:53.502Z,103114.97
2023-02-27T06:59:20.034Z,103116.50
2023-02-27T07:01:46.512Z,103110.69
2023-02-27T07:04:16.749Z,103125.38
2023-02-27T07:07:35.316Z,103118.84
2023-02-27T07:09:30.066Z,103118.53
2023-02-27T07:11:56.641Z,103121.91
2023-02-27T07:14:23.309Z,103122.84
2023-02-27T07:16:53.895Z,103130.94
2023-02-27T07:19:21.885Z,103125.81
2023-02-27T07:21:48.808Z,103123.94
2023-02-27T07:24:15.556Z,103120.63
2023-02-27T07:26:42.114Z,103125.59
2023-02-27T07:29:09.837Z,103119.56
2023-02-27T07:31:36.383Z,103127.44
2023-02-27T07:34:03.400Z,103119.44
2023-02-27T07:36:31.104Z,103126.16
2023-02-27T07:38:58.268Z,103130.28
2023-02-27T07:41:30.836Z,103129.88
2023-02-27T07:43:57.834Z,103128.41
2023-02-27T07:46:27.364Z,103124.03
2023-02-27T07:48:54.617Z,103122.44
2023-02-27T07:51:21.495Z,103116.38
2023-02-27T07:53:48.025Z,103121.16
2023-02-27T07:56:14.688Z,103118.28
2023-02-27T07:58:41.158Z,103119.00
2023-02-27T08:01:07.675Z,103117.59
2023-02-27T08:03:34.245Z,103129.34
2023-02-27T08:06:02.365Z,103137.75
2023-02-27T08:08:29.697Z,103142.97
2023-02-27T08:10:56.344Z,103136.22
2023-02-27T08:13:42.306Z,103142.47
2023-02-27T08:16:09.535Z,103148.06
2023-02-27T08:18:36.176Z,103144.56
2023-02-27T08:21:04.978Z,103152.56
2023-02-27T08:23:32.544Z,103146.13
2023-02-27T08:25:59.285Z,103151.28
2023-02-27T08:28:25.808Z,103161.03
2023-02-27T08:30:52.590Z,103158.16
2023-02-27T08:33:19.186Z,103160.41
2023-02-27T08:35:45.741Z,103157.25
2023-02-27T08:38:12.313Z,103161.16
2023-02-27T08:40:38.985Z,103168.53
2023-02-27T08:43:05.432Z,103164.56
2023-02-27T08:45:31.946Z,103175.13
2023-02-27T08:47:58.510Z,103172.81
2023-02-27T08:50:25.036Z,103167.44
2023-02-27T08:52:51.599Z,103177.19
2023-02-27T08:55:18.320Z,103172.16
2023-02-27T08:57:44.788Z,103170.25
2023-02-27T09:00:14.654Z,103177.91
2023-02-27T09:02:41.644Z,103174.53
2023-02-27T09:05:08.677Z,103177.94
2023-02-27T09:07:35.194Z,103180.38
2023-02-27T09:10:01.656Z,103185.41
2023-02-27T09:12:28.180Z,103183.38
2023-02-27T09:14:54.851Z,103180.91
2023-02-27T09:17:21.705Z,103185.88
2023-02-27T09:19:48.226Z,103187.88
2023-02-27T09:22:14.764Z,103196.97
2023-02-27T09:24:41.243Z,103194.06
2023-02-27T09:27:07.745Z,103184.19
2023-02-27T09:29:34.335Z,103176.28
2023-02-27T09:32:01.088Z,103184.09
2023-02-27T09:34:27.697Z,103181.13
2023-02-27T09:36:54.143Z,103184.72
2023-02-27T09:39:21.463Z,103176.66
2023-02-27T09:42:05.488Z,103179.41
2023-02-27T09:45:05.505Z,103176.22
2023-02-27T09:47:40.049Z,103178.97
2023-02-27T09:50:18.416Z,103178.47
2023-02-27T09:52:45.135Z,103179.59
2023-02-27T09:55:19.041Z,103180.94
2023-02-27T09:58:14.209Z,103184.53
2023-02-27T10:00:55.719Z,103173.09
2023-02-27T10:03:47.907Z,103174.53
2023-02-27T10:06:33.929Z,103174.50
2023-02-27T10:09:14.368Z,103186.41
2023-02-27T10:11:58.240Z,103170.03
2023-02-27T10:14:33.705Z,103175.19
2023-02-27T10:17:03.771Z,103166.63
2023-02-27T10:19:37.241Z,103166.34
2023-02-27T10:22:10.209Z,103172.59
2023-02-27T10:24:52.576Z,103174.97
2023-02-27T10:27:21.660Z,103168.00
2023-02-27T10:29:48.485Z,103173.47
2023-02-27T10:32:17.128Z,103170.75
2023-02-27T10:34:49.027Z,103169.13
2023-02-27T10:37:18.300Z,103173.25
2023-02-27T10:40:00.414Z,103164.66
2023-02-27T10:42:33.003Z,103176.56
2023-02-27T10:44:59.602Z,103169.28
2023-02-27T10:47:26.724Z,103157.75
2023-02-27T10:49:54.782Z,103157.97
2023-02-27T10:52:21.587Z,103164.50
2023-02-27T10:54:48.717Z,103156.13
2023-02-27T10:57:30.455Z,103152.91
2023-02-27T11:00:06.433Z,103145.09
2023-02-27T11:02:37.231Z,103137.75
2023-02-27T11:05:06.676Z,103129.94
2023-02-27T11:07:37.364Z,103134.78
2023-02-27T11:10:06.806Z,103141.56
2023-02-27T11:12:35.370Z,103138.06
2023-02-27T11:15:23.700Z,103117.25
2023-02-27T11:17:50.211Z,103127.78
2023-02-27T11:20:33.739Z,103128.06
2023-02-27T11:23:16.566Z,103112.94
2023-02-27T11:25:44.125Z,103112.09
2023-02-27T11:28:22.941Z,103114.00
2023-02-27T11:31:00.999Z,103106.69
2023-02-27T11:33:29.655Z,103112.34
2023-02-27T11:35:58.709Z,103121.56
2023-02-27T11:38:29.292Z,103117.50
2023-02-27T11:41:04.690Z,103106.69
2023-02-27T11:43:48.276Z,103104.50
2023-02-27T11:46:41.993Z,103100.72
2023-02-27T11:49:33.531Z,103094.50
2023-02-27T11:52:29.155Z,103099.59
2023-02-27T11:54:58.786Z,103086.84
2023-02-27T11:57:25.316Z,103082.47
2023-02-27T12:00:08.448Z,103085.91
2023-02-27T12:02:55.338Z,103083.38
2023-02-27T12:05:30.493Z,103091.22
2023-02-27T12:08:11.217Z,103084.97
2023-02-27T12:10:55.626Z,103078.75
2023-02-27T12:13:30.133Z,103075.06
2023-02-27T12:16:33.322Z,103077.22
2023-02-27T12:19:15.042Z,103072.81
2023-02-27T12:21:48.399Z,103073.47
2023-02-27T12:24:26.020Z,103070.06
2023-02-27T12:27:24.850Z,103065.72
2023-02-27T12:29:59.021Z,103057.84
2023-02-27T12:32:31.803Z,103068.72
2023-02-27T12:35:13.828Z,103058.03
2023-02-27T12:37:40.312Z,103048.91
2023-02-27T12:40:09.131Z,103040.38
2023-02-27T12:42:36.163Z,103038.09
2023-02-27T12:45:05.254Z,103047.50
2023-02-27T12:48:03.931Z,103061.72
2023-02-27T12:51:02.784Z,103037.25
2023-02-27T12:53:35.567Z,103042.28
2023-02-27T12:56:10.834Z,103039.63
2023-02-27T12:58:46.054Z,103034.56
2023-02-27T13:01:21.318Z,103039.38
2023-02-27T13:04:20.243Z,103038.84
2023-02-27T13:07:04.771Z,103034.53
2023-02-27T13:09:50.444Z,103038.97
2023-02-27T13:12:40.884Z,103041.97
2023-02-27T13:15:29.539Z,103030.53
2023-02-27T13:18:16.146Z,103041.06
2023-02-27T13:21:18.507Z,103038.22
2023-02-27T13:24:09.942Z,103041.59
2023-02-27T13:26:41.564Z,103038.44
2023-02-27T13:29:15.357Z,103038.59
2023-02-27T13:31:52.862Z,103041.34
2023-02-27T13:34:40.694Z,103034.38
2023-02-27T13:37:09.041Z,103032.78
2023-02-27T13:39:51.807Z,103027.00
2023-02-27T13:42:27.354Z,103029.28
2023-02-27T13:44:58.912Z,103030.41
2023-02-27T13:47:31.152Z,103037.56
2023-02-27T13:50:21.466Z,103034.56
2023-02-27T13:52:48.779Z,103027.50
2023-02-27T13:55:37.708Z,103021.28
2023-02-27T13:58:05.670Z,103027.72
2023-02-27T14:00:34.978Z,103028.06
2023-02-27T14:03:08.751Z,103036.56
2023-02-27T14:05:42.372Z,103030.81
2023-02-27T14:08:11.888Z,103021.94
2023-02-27T14:10:50.285Z,103018.53
2023-02-27T14:13:50.950Z,103022.78
2023-02-27T14:16:39.821Z,103018.00
2023-02-27T14:19:28.142Z,103009.03
2023-02-27T14:22:01.028Z,103001.50
2023-02-27T14:25:00.931Z,103008.47
2023-02-27T14:27:38.633Z,103004.91
2023-02-27T14:30:10.036Z,103014.81
2023-02-27T14:32:37.779Z,103006.47
2023-02-27T14:35:06.165Z,103018.75
2023-02-27T14:37:35.567Z,103029.69
2023-02-27T14:40:06.060Z,103017.44
2023-02-27T14:42:45.617Z,103019.63
2023-02-27T14:45:20.697Z,103023.91
2023-02-27T14:47:47.780Z,103021.53
2023-02-27T14:50:40.816Z,103027.53
2023-02-27T14:53:21.277Z,103021.94
2023-02-27T14:55:54.376Z,103029.00
2023-02-27T14:58:22.189Z,103026.50
2023-02-27T15:01:02.432Z,103027.53
2023-02-27T15:03:34.871Z,103020.75
2023-02-27T15:06:04.860Z,103022.66
2023-02-27T15:08:38.005Z,103013.06
2023-02-27T15:11:06.398Z,103025.47
2023-02-27T15:13:36.521Z,103013.88
2023-02-27T15:16:31.749Z,103011.69
2023-02-27T15:19:15.274Z,103014.28
2023-02-27T15:21:50.019Z,103019.09
2023-02-27T15:24:31.380Z,103020.19
2023-02-27T15:27:01.389Z,103013.75
2023-02-27T15:29:42.472Z,103022.19
2023-02-27T15:32:17.741Z,103025.63
2023-02-27T15:34:45.104Z,103026.81
2023-02-27T15:37:27.372Z,103019.00
2023-02-27T15:39:55.121Z,103019.53
2023-02-27T15:42:26.405Z,103024.09
2023-02-27T15:44:54.075Z,103019.69
2023-02-27T15:47:30.871Z,103026.03
2023-02-27T15:50:17.098Z,103015.53
2023-02-27T15:53:20.080Z,103025.47
2023-02-27T15:55:58.692Z,103018.91
2023-02-27T15:58:28.611Z,103025.75
2023-02-27T16:01:18.795Z,103019.22
2023-02-27T16:03:48.268Z,103014.00
2023-02-27T16:06:35.148Z,103021.19
2023-02-27T16:09:19.489Z,103020.63
2023-02-27T16:11:46.154Z,103023.28
2023-02-27T16:14:44.734Z,103023.41
2023-02-27T16:17:25.030Z,103023.09
2023-02-27T16:19:52.236Z,103027.41
2023-02-27T16:22:20.715Z,103030.13
2023-02-27T16:24:47.964Z,103041.69
2023-02-27T16:27:26.637Z,103033.00
2023-02-27T16:29:56.080Z,103023.66
2023-02-27T16:32:34.709Z,103031.81
2023-02-27T16:35:04.195Z,103039.69
2023-02-27T16:37:38.717Z,103043.22
2023-02-27T16:40:19.758Z,103039.72
2023-02-27T16:42:46.897Z,103041.69
2023-02-27T16:45:25.556Z,103035.41
2023-02-27T16:47:58.470Z,103037.91
2023-02-27T16:50:33.605Z,103039.72
2023-02-27T16:53:00.197Z,103045.22
2023-02-27T16:55:27.361Z,103043.81
2023-02-27T16:57:54.255Z,103032.78
2023-02-27T17:00:22.569Z,103047.00
2023-02-27T17:02:49.919Z,103047.66
2023-02-27T17:05:17.231Z,103045.03
2023-02-27T17:07:44.782Z,103048.78
2023-02-27T17:10:17.932Z,103052.31
2023-02-27T17:12:44.388Z,103057.56
2023-02-27T17:15:10.988Z,103057.50
2023-02-27T17:17:37.491Z,103070.84
2023-02-27T17:20:07.207Z,103062.88
2023-02-27T17:22:39.458Z,103068.88
2023-02-27T17:25:06.793Z,103063.22
2023-02-27T17:27:33.617Z,103067.56
2023-02-27T17:30:00.146Z,103068.69
2023-02-27T17:32:26.977Z,103069.03
2023-02-27T17:34:55.228Z,103077.75
2023-02-27T17:37:22.461Z,103073.72
2023-02-27T17:39:49.240Z,103073.44
2023-02-27T17:42:18.468Z,103076.97
2023-02-27T17:44:48.103Z,103074.84
2023-02-27T17:47:15.281Z,103086.97
2023-02-27T17:49:41.864Z,103088.06
2023-02-27T17:52:09.264Z,103088.34
2023-02-27T17:54:36.248Z,103092.66
2023-02-27T17:57:04.897Z,103091.84
2023-02-27T17:59:31.685Z,103086.97
2023-02-27T18:01:58.730Z,103092.13
2023-02-27T18:04:25.578Z,103088.06
2023-02-27T18:06:52.182Z,103092.09
2023-02-27T18:09:18.854Z,103093.16
2023-02-27T18:11:45.390Z,103093.94
2023-02-27T18:14:12.145Z,103093.59
2023-02-27T18:16:38.668Z,103100.56
2023-02-27T18:19:06.445Z,103101.88
2023-02-27T18:21:33.854Z,103103.78
2023-02-27T18:24:00.761Z,103109.44
2023-02-27T18:26:32.519Z,103112.38
2023-02-27T18:29:02.118Z,103108.31
2023-02-27T18:31:36.213Z,103111.75
2023-02-27T18:34:03.278Z,103117.38
2023-02-27T18:36:31.280Z,103118.38
2023-02-27T18:38:58.690Z,103113.50
2023-02-27T18:41:25.751Z,103124.25
2023-02-27T18:43:53.434Z,103118.28
2023-02-27T18:46:20.212Z,103113.38
2023-02-27T18:48:47.237Z,103121.69
2023-02-27T18:51:15.435Z,103117.88
2023-02-27T18:53:45.871Z,103118.44
2023-02-27T18:56:13.839Z,103112.25
2023-02-27T18:58:40.571Z,103123.78
2023-02-27T19:01:07.577Z,103128.06
2023-02-27T19:03:35.630Z,103126.19
2023-02-27T19:06:02.194Z,103129.38
2023-02-27T19:08:29.245Z,103125.81
2023-02-27T19:10:56.916Z,103127.94
2023-02-27T19:13:25.334Z,103131.19
2023-02-27T19:15:52.665Z,103127.38
2023-02-27T19:18:19.519Z,103124.19
2023-02-27T19:20:45.974Z,103123.41
2023-02-27T19:23:12.514Z,103135.09
2023-02-27T19:25:39.145Z,103134.72
2023-02-27T19:28:06.419Z,103135.72
2023-02-27T19:30:33.286Z,103138.16
2023-02-27T19:32:59.899Z,103140.00
2023-02-27T19:35:26.410Z,103135.88
2023-02-27T19:37:57.983Z,103137.69
2023-02-27T19:40:26.192Z,103156.28
2023-02-27T19:42:52.911Z,103144.41
2023-02-27T19:45:20.268Z,103150.41
2023-02-27T19:47:46.817Z,103141.56
2023-02-27T19:50:13.873Z,103155.22
2023-02-27T19:52:40.730Z,103160.91
2023-02-27T19:55:07.860Z,103156.09
2023-02-27T19:57:35.411Z,103157.34
2023-02-27T20:00:01.943Z,103150.72
2023-02-27T20:02:29.083Z,103161.19
2023-02-27T20:04:55.679Z,103157.88
2023-02-27T20:07:22.826Z,103153.81
2023-02-27T20:09:49.682Z,103157.63
2023-02-27T20:12:16.158Z,103157.09
2023-02-27T20:14:42.605Z,103153.81
2023-02-27T20:17:09.034Z,103158.63
2023-02-27T20:19:36.446Z,103161.84
2023-02-27T20:22:03.657Z,103164.97
2023-02-27T20:24:30.172Z,103172.44
2023-02-27T20:26:59.057Z,103174.25
2023-02-27T20:29:27.290Z,103172.56
2023-02-27T20:31:55.717Z,103173.09
2023-02-27T20:34:26.206Z,103167.31
2023-02-27T20:36:54.550Z,103172.97
2023-02-27T20:39:21.813Z,103166.50
2023-02-27T20:41:48.890Z,103163.50
2023-02-27T20:44:15.411Z,103155.06
2023-02-27T20:46:43.842Z,103153.59
2023-02-27T20:49:12.449Z,103156.81
2023-02-27T20:51:40.243Z,103153.16
2023-02-27T20:54:13.482Z,103154.97
2023-02-27T20:56:43.176Z,103159.41
2023-02-27T20:59:13.527Z,103156.19
2023-02-27T21:01:40.296Z,103158.66
2023-02-27T21:04:07.085Z,103161.19
2023-02-27T21:06:34.904Z,103165.84
2023-02-27T21:09:05.327Z,103164.59
2023-02-27T21:11:33.272Z,103161.28
2023-02-27T21:14:04.159Z,103165.69
2023-02-27T21:16:31.171Z,103167.22
2023-02-27T21:18:57.785Z,103169.84
2023-02-27T21:21:28.088Z,103170.28
2023-02-27T21:23:55.078Z,103173.59
2023-02-27T21:26:24.940Z,103174.56
2023-02-27T21:29:04.829Z,103169.63
2023-02-27T21:31:33.168Z,103174.19
2023-02-27T21:34:01.860Z,103174.31
2023-02-27T21:36:32.223Z,103177.75
2023-02-27T21:39:00.406Z,103175.88
2023-02-27T21:41:28.476Z,103187.44
2023-02-27T21:44:03.708Z,103181.31
2023-02-27T21:46:31.257Z,103180.84
2023-02-27T21:48:58.491Z,103176.75
2023-02-27T21:51:38.813Z,103186.63
2023-02-27T21:54:06.717Z,103173.84
2023-02-27T21:56:33.252Z,103179.78
2023-02-27T21:59:01.876Z,103181.97
2023-02-27T22:01:29.594Z,103178.59
2023-02-27T22:03:57.039Z,103180.47
2023-02-27T22:06:25.329Z,103181.53
2023-02-27T22:08:57.588Z,103178.22
2023-02-27T22:11:26.607Z,103192.03
2023-02-27T22:13:53.314Z,103178.59
2023-02-27T22:16:20.570Z,103182.44
2023-02-27T22:18:47.652Z,103183.09
2023-02-27T22:21:22.576Z,103177.16
2023-02-27T22:23:49.529Z,103180.06
2023-02-27T22:26:20.351Z,103170.31
2023-02-27T22:28:47.123Z,103182.56
2023-02-27T22:31:18.989Z,103169.94
2023-02-27T22:33:47.809Z,103182.16
2023-02-27T22:36:24.331Z,103181.59
2023-02-27T22:38:51.923Z,103176.47
2023-02-27T22:41:24.525Z,103178.25
2023-02-27T22:43:51.365Z,103175.56
2023-02-27T22:46:27.035Z,103185.41
2023-02-27T22:48:58.459Z,103182.63
2023-02-27T22:51:27.793Z,103180.88
2023-02-27T22:53:56.706Z,103192.09
2023-02-27T22:56:23.935Z,103187.78
2023-02-27T22:58:50.510Z,103190.00
2023-02-27T23:01:22.889Z,103187.78
2023-02-27T23:03:51.589Z,103195.28
2023-02-27T23:06:21.396Z,103193.88
2023-02-27T23:08:48.447Z,103195.16
2023-02-27T23:11:16.597Z,103187.00
2023-02-27T23:13:43.178Z,103191.56
2023-02-27T23:16:13.742Z,103198.34
2023-02-27T23:18:41.737Z,103191.56
2023-02-27T23:21:09.554Z,103198.78
2023-02-27T23:23:36.499Z,103196.09
2023-02-27T23:26:04.363Z,103205.44
2023-02-27T23:28:30.845Z,103196.84
2023-02-27T23:30:57.412Z,103197.03
2023-02-27T23:33:23.910Z,103203.44
2023-02-27T23:35:51.846Z,103198.81
2023-02-27T23:38:18.740Z,103198.94
2023-02-27T23:40:45.223Z,103201.31
2023-02-27T23:43:30.459Z,103197.44
2023-02-27T23:45:56.972Z,103192.91
2023-02-27T23:48:23.972Z,103203.28
2023-02-27T23:50:50.432Z,103211.00
2023-02-27T23:53:17.122Z,103214.03
2023-02-27T23:55:44.043Z,103205.19
2023-02-27T23:58:11.261Z,103202.25
